sensor_id;sensor_type;location;lat;lon;timestamp;pressure;altitude;pressure_sealevel;temperature;humidity
74615;BME280;63121;51.458;-0.110;2022-09-09T00:03:53;100128.63;;;15.62;94.52
74615;BME280;63121;51.458;-0.110;2022-09-09T00:06:30;100125.25;;;15.60;94.55
74615;BME280;63121;51.458;-0.110;2022-09-09T00:09:17;100124.28;;;15.63;94.46
74615;BME280;63121;51.458;-0.110;2022-09-09T00:11:53;100124.78;;;15.51;94.38
74615;BME280;63121;51.458;-0.110;2022-09-09T00:17:03;100121.97;;;15.55;94.20
74615;BME280;63121;51.458;-0.110;2022-09-09T00:19:45;100116.13;;;15.50;94.09
74615;BME280;63121;51.458;-0.110;2022-09-09T00:22:18;100124.81;;;15.49;94.39
74615;BME280;63121;51.458;-0.110;2022-09-09T00:29:54;100119.97;;;15.41;94.21
74615;BME280;63121;51.458;-0.110;2022-09-09T00:32:22;100117.41;;;15.40;94.07
74615;BME280;63121;51.458;-0.110;2022-09-09T00:34:53;100120.19;;;15.35;94.07
74615;BME280;63121;51.458;-0.110;2022-09-09T00:37:22;100120.44;;;15.29;94.23
74615;BME280;63121;51.458;-0.110;2022-09-09T00:39:51;100121.44;;;15.27;94.09
74615;BME280;63121;51.458;-0.110;2022-09-09T00:48:10;100123.41;;;15.42;93.88
74615;BME280;63121;51.458;-0.110;2022-09-09T00:56:19;100110.88;;;15.52;93.46
74615;BME280;63121;51.458;-0.110;2022-09-09T01:01:30;100111.56;;;15.55;92.91
74615;BME280;63121;51.458;-0.110;2022-09-09T01:03:56;100103.91;;;15.52;93.20
74615;BME280;63121;51.458;-0.110;2022-09-09T01:06:35;100102.97;;;15.53;92.90
74615;BME280;63121;51.458;-0.110;2022-09-09T01:17:26;100101.81;;;15.40;93.96
74615;BME280;63121;51.458;-0.110;2022-09-09T01:22:50;100089.09;;;15.54;93.89
74615;BME280;63121;51.458;-0.110;2022-09-09T01:28:11;100095.72;;;15.61;93.14
74615;BME280;63121;51.458;-0.110;2022-09-09T01:30:40;100096.75;;;15.57;93.85
74615;BME280;63121;51.458;-0.110;2022-09-09T01:33:15;100095.25;;;15.52;93.22
74615;BME280;63121;51.458;-0.110;2022-09-09T01:36:18;100095.50;;;15.45;93.61
74615;BME280;63121;51.458;-0.110;2022-09-09T01:38:45;100091.78;;;15.51;93.01
74615;BME280;63121;51.458;-0.110;2022-09-09T01:41:10;100090.75;;;15.55;93.26
74615;BME280;63121;51.458;-0.110;2022-09-09T01:43:36;100091.63;;;15.56;93.32
74615;BME280;63121;51.458;-0.110;2022-09-09T01:46:02;100089.78;;;15.58;93.42
74615;BME280;63121;51.458;-0.110;2022-09-09T01:48:28;100094.94;;;15.59;93.57
74615;BME280;63121;51.458;-0.110;2022-09-09T01:50:55;100090.84;;;15.54;93.53
74615;BME280;63121;51.458;-0.110;2022-09-09T01:53:21;100091.94;;;15.48;93.82
74615;BME280;63121;51.458;-0.110;2022-09-09T01:55:56;100088.28;;;15.52;93.78
74615;BME280;63121;51.458;-0.110;2022-09-09T01:58:28;100093.75;;;15.46;93.65
74615;BME280;63121;51.458;-0.110;2022-09-09T02:03:55;100096.56;;;15.41;93.97
74615;BME280;63121;51.458;-0.110;2022-09-09T02:06:33;100091.34;;;15.41;94.07
74615;BME280;63121;51.458;-0.110;2022-09-09T02:09:01;100088.84;;;15.38;94.20
74615;BME280;63121;51.458;-0.110;2022-09-09T02:11:29;100096.84;;;15.34;94.28
74615;BME280;63121;51.458;-0.110;2022-09-09T02:14:02;100100.81;;;15.42;94.14
74615;BME280;63121;51.458;-0.110;2022-09-09T02:16:38;100103.03;;;15.31;94.43
74615;BME280;63121;51.458;-0.110;2022-09-09T02:19:16;100092.44;;;15.36;94.25
74615;BME280;63121;51.458;-0.110;2022-09-09T02:21:54;100095.97;;;15.35;94.14
74615;BME280;63121;51.458;-0.110;2022-09-09T02:24:21;100098.41;;;15.38;94.15
74615;BME280;63121;51.458;-0.110;2022-09-09T02:26:49;100096.59;;;15.40;93.77
74615;BME280;63121;51.458;-0.110;2022-09-09T02:29:22;100108.88;;;15.36;93.93
74615;BME280;63121;51.458;-0.110;2022-09-09T02:31:49;100105.31;;;15.39;94.13
74615;BME280;63121;51.458;-0.110;2022-09-09T02:34:16;100104.53;;;15.37;94.17
74615;BME280;63121;51.458;-0.110;2022-09-09T02:36:44;100098.91;;;15.25;94.17
74615;BME280;63121;51.458;-0.110;2022-09-09T02:39:11;100112.47;;;15.34;94.56
74615;BME280;63121;51.458;-0.110;2022-09-09T02:41:39;100108.19;;;15.33;93.89
74615;BME280;63121;51.458;-0.110;2022-09-09T02:44:15;100106.41;;;15.33;93.60
74615;BME280;63121;51.458;-0.110;2022-09-09T02:55:37;100115.31;;;15.28;94.05
74615;BME280;63121;51.458;-0.110;2022-09-09T02:58:09;100119.63;;;15.29;93.70
74615;BME280;63121;51.458;-0.110;2022-09-09T03:00:37;100118.94;;;15.23;94.26
74615;BME280;63121;51.458;-0.110;2022-09-09T03:03:04;100117.00;;;15.29;93.84
74615;BME280;63121;51.458;-0.110;2022-09-09T03:05:29;100119.72;;;15.25;93.85
74615;BME280;63121;51.458;-0.110;2022-09-09T03:07:54;100119.91;;;15.21;94.09
74615;BME280;63121;51.458;-0.110;2022-09-09T03:10:20;100118.75;;;15.28;93.97
74615;BME280;63121;51.458;-0.110;2022-09-09T03:12:45;100120.31;;;15.32;93.57
74615;BME280;63121;51.458;-0.110;2022-09-09T03:15:11;100121.34;;;15.28;93.73
74615;BME280;63121;51.458;-0.110;2022-09-09T03:17:36;100124.03;;;15.27;94.18
74615;BME280;63121;51.458;-0.110;2022-09-09T03:20:03;100115.19;;;15.31;93.86
74615;BME280;63121;51.458;-0.110;2022-09-09T03:22:29;100120.31;;;15.32;94.06
74615;BME280;63121;51.458;-0.110;2022-09-09T03:24:54;100122.03;;;15.33;93.93
74615;BME280;63121;51.458;-0.110;2022-09-09T03:27:19;100122.81;;;15.35;93.22
74615;BME280;63121;51.458;-0.110;2022-09-09T03:29:46;100128.31;;;15.28;93.89
74615;BME280;63121;51.458;-0.110;2022-09-09T03:32:12;100125.06;;;15.22;93.85
74615;BME280;63121;51.458;-0.110;2022-09-09T03:34:37;100130.00;;;15.29;93.42
74615;BME280;63121;51.458;-0.110;2022-09-09T03:37:05;100133.63;;;15.24;93.58
74615;BME280;63121;51.458;-0.110;2022-09-09T03:39:31;100130.97;;;15.26;93.63
74615;BME280;63121;51.458;-0.110;2022-09-09T03:41:56;100132.53;;;15.30;93.86
74615;BME280;63121;51.458;-0.110;2022-09-09T03:44:22;100135.25;;;15.27;94.04
74615;BME280;63121;51.458;-0.110;2022-09-09T03:46:47;100137.63;;;15.33;93.64
74615;BME280;63121;51.458;-0.110;2022-09-09T03:49:13;100135.91;;;15.32;93.68
74615;BME280;63121;51.458;-0.110;2022-09-09T03:51:38;100140.94;;;15.37;93.56
74615;BME280;63121;51.458;-0.110;2022-09-09T03:54:04;100136.69;;;15.34;93.48
74615;BME280;63121;51.458;-0.110;2022-09-09T03:56:33;100147.97;;;15.35;93.57
74615;BME280;63121;51.458;-0.110;2022-09-09T03:58:59;100148.91;;;15.32;93.26
74615;BME280;63121;51.458;-0.110;2022-09-09T04:01:24;100144.63;;;15.31;93.97
74615;BME280;63121;51.458;-0.110;2022-09-09T04:03:50;100141.66;;;15.40;93.53
74615;BME280;63121;51.458;-0.110;2022-09-09T04:06:18;100151.50;;;15.32;93.40
74615;BME280;63121;51.458;-0.110;2022-09-09T04:08:46;100151.16;;;15.41;93.31
74615;BME280;63121;51.458;-0.110;2022-09-09T04:11:13;100149.28;;;15.45;93.16
74615;BME280;63121;51.458;-0.110;2022-09-09T04:13:40;100151.88;;;15.45;93.34
74615;BME280;63121;51.458;-0.110;2022-09-09T04:16:07;100153.97;;;15.37;93.65
74615;BME280;63121;51.458;-0.110;2022-09-09T04:18:34;100152.53;;;15.28;94.44
74615;BME280;63121;51.458;-0.110;2022-09-09T04:21:00;100159.56;;;15.26;94.40
74615;BME280;63121;51.458;-0.110;2022-09-09T04:23:27;100163.81;;;15.29;93.88
74615;BME280;63121;51.458;-0.110;2022-09-09T04:25:55;100162.28;;;15.23;93.77
74615;BME280;63121;51.458;-0.110;2022-09-09T04:28:23;100163.13;;;15.23;94.17
74615;BME280;63121;51.458;-0.110;2022-09-09T04:30:49;100170.28;;;15.18;94.05
74615;BME280;63121;51.458;-0.110;2022-09-09T04:33:15;100167.72;;;15.17;94.87
74615;BME280;63121;51.458;-0.110;2022-09-09T04:35:47;100165.63;;;15.27;93.74
74615;BME280;63121;51.458;-0.110;2022-09-09T04:38:13;100180.31;;;15.28;93.97
74615;BME280;63121;51.458;-0.110;2022-09-09T04:40:38;100168.56;;;15.17;93.92
74615;BME280;63121;51.458;-0.110;2022-09-09T04:43:08;100174.50;;;15.21;94.40
74615;BME280;63121;51.458;-0.110;2022-09-09T04:45:34;100184.84;;;15.22;93.42
74615;BME280;63121;51.458;-0.110;2022-09-09T04:47:59;100179.88;;;15.16;94.03
74615;BME280;63121;51.458;-0.110;2022-09-09T04:50:25;100174.50;;;15.21;93.76
74615;BME280;63121;51.458;-0.110;2022-09-09T04:52:50;100181.56;;;15.17;93.62
74615;BME280;63121;51.458;-0.110;2022-09-09T04:55:16;100173.91;;;15.14;93.98
74615;BME280;63121;51.458;-0.110;2022-09-09T04:57:41;100177.25;;;15.18;93.34
74615;BME280;63121;51.458;-0.110;2022-09-09T05:00:08;100185.03;;;15.18;93.99
74615;BME280;63121;51.458;-0.110;2022-09-09T05:02:37;100184.78;;;15.24;94.07
74615;BME280;63121;51.458;-0.110;2022-09-09T05:05:03;100185.94;;;15.17;93.64
74615;BME280;63121;51.458;-0.110;2022-09-09T05:07:28;100183.47;;;15.14;94.44
74615;BME280;63121;51.458;-0.110;2022-09-09T05:09:54;100185.66;;;15.24;93.76
74615;BME280;63121;51.458;-0.110;2022-09-09T05:12:19;100194.22;;;15.27;93.62
74615;BME280;63121;51.458;-0.110;2022-09-09T05:14:45;100203.09;;;15.21;93.77
74615;BME280;63121;51.458;-0.110;2022-09-09T05:17:10;100208.25;;;15.22;93.64
74615;BME280;63121;51.458;-0.110;2022-09-09T05:19:35;100209.03;;;15.24;93.99
74615;BME280;63121;51.458;-0.110;2022-09-09T05:22:01;100215.13;;;15.23;93.97
74615;BME280;63121;51.458;-0.110;2022-09-09T05:24:26;100209.16;;;15.21;93.60
74615;BME280;63121;51.458;-0.110;2022-09-09T05:26:52;100215.81;;;15.29;93.67
74615;BME280;63121;51.458;-0.110;2022-09-09T05:29:17;100220.09;;;15.30;93.43
74615;BME280;63121;51.458;-0.110;2022-09-09T05:31:45;100215.69;;;15.32;93.70
74615;BME280;63121;51.458;-0.110;2022-09-09T05:34:10;100227.81;;;15.33;93.10
74615;BME280;63121;51.458;-0.110;2022-09-09T05:36:36;100230.44;;;15.31;93.38
74615;BME280;63121;51.458;-0.110;2022-09-09T05:39:02;100226.78;;;15.37;93.05
74615;BME280;63121;51.458;-0.110;2022-09-09T05:41:28;100233.78;;;15.35;93.16
74615;BME280;63121;51.458;-0.110;2022-09-09T05:43:54;100242.72;;;15.28;92.68
74615;BME280;63121;51.458;-0.110;2022-09-09T05:46:22;100241.81;;;15.29;93.40
74615;BME280;63121;51.458;-0.110;2022-09-09T05:48:49;100235.84;;;15.27;92.91
74615;BME280;63121;51.458;-0.110;2022-09-09T05:51:20;100244.53;;;15.25;92.92
74615;BME280;63121;51.458;-0.110;2022-09-09T05:53:47;100248.28;;;15.18;93.14
74615;BME280;63121;51.458;-0.110;2022-09-09T05:56:18;100250.03;;;15.18;93.04
74615;BME280;63121;51.458;-0.110;2022-09-09T05:58:44;100252.47;;;15.22;93.19
74615;BME280;63121;51.458;-0.110;2022-09-09T06:01:25;100258.53;;;15.21;93.10
74615;BME280;63121;51.458;-0.110;2022-09-09T06:03:54;100260.97;;;15.26;92.85
74615;BME280;63121;51.458;-0.110;2022-09-09T06:06:21;100263.94;;;15.17;92.58
74615;BME280;63121;51.458;-0.110;2022-09-09T06:08:48;100262.97;;;15.19;92.50
74615;BME280;63121;51.458;-0.110;2022-09-09T06:11:17;100263.88;;;15.18;92.83
74615;BME280;63121;51.458;-0.110;2022-09-09T06:13:43;100274.88;;;15.25;92.82
74615;BME280;63121;51.458;-0.110;2022-09-09T06:16:10;100267.69;;;15.32;92.51
74615;BME280;63121;51.458;-0.110;2022-09-09T06:18:41;100278.72;;;15.38;91.86
74615;BME280;63121;51.458;-0.110;2022-09-09T06:23:42;100273.59;;;15.37;91.45
74615;BME280;63121;51.458;-0.110;2022-09-09T06:26:14;100281.41;;;15.37;90.99
74615;BME280;63121;51.458;-0.110;2022-09-09T06:28:41;100280.69;;;15.32;91.31
74615;BME280;63121;51.458;-0.110;2022-09-09T06:31:09;100278.22;;;15.29;91.32
74615;BME280;63121;51.458;-0.110;2022-09-09T06:33:37;100283.34;;;15.30;90.91
74615;BME280;63121;51.458;-0.110;2022-09-09T06:36:04;100289.28;;;15.34;90.75
74615;BME280;63121;51.458;-0.110;2022-09-09T06:38:30;100291.91;;;15.34;90.17
74615;BME280;63121;51.458;-0.110;2022-09-09T06:40:57;100294.44;;;15.35;90.53
74615;BME280;63121;51.458;-0.110;2022-09-09T06:43:23;100293.47;;;15.38;90.76
74615;BME280;63121;51.458;-0.110;2022-09-09T06:46:03;100293.47;;;15.38;90.46
74615;BME280;63121;51.458;-0.110;2022-09-09T06:48:29;100287.44;;;15.37;90.13
74615;BME280;63121;51.458;-0.110;2022-09-09T06:53:30;100294.31;;;15.38;89.52
74615;BME280;63121;51.458;-0.110;2022-09-09T06:55:59;100294.59;;;15.54;88.83
74615;BME280;63121;51.458;-0.110;2022-09-09T06:58:26;100303.34;;;15.75;88.41
74615;BME280;63121;51.458;-0.110;2022-09-09T07:00:51;100299.91;;;15.97;87.26
74615;BME280;63121;51.458;-0.110;2022-09-09T07:03:17;100304.59;;;16.09;87.06
74615;BME280;63121;51.458;-0.110;2022-09-09T07:05:43;100310.69;;;15.88;87.63
74615;BME280;63121;51.458;-0.110;2022-09-09T07:08:10;100315.94;;;15.86;87.49
74615;BME280;63121;51.458;-0.110;2022-09-09T07:10:35;100321.09;;;15.88;87.13
74615;BME280;63121;51.458;-0.110;2022-09-09T07:13:01;100314.91;;;15.90;87.28
74615;BME280;63121;51.458;-0.110;2022-09-09T07:15:27;100330.34;;;15.95;87.16
74615;BME280;63121;51.458;-0.110;2022-09-09T07:17:52;100324.22;;;15.96;86.97
74615;BME280;63121;51.458;-0.110;2022-09-09T07:20:19;100332.72;;;16.01;86.06
74615;BME280;63121;51.458;-0.110;2022-09-09T07:22:45;100332.66;;;16.02;86.48
74615;BME280;63121;51.458;-0.110;2022-09-09T07:25:10;100347.91;;;16.12;85.63
74615;BME280;63121;51.458;-0.110;2022-09-09T07:27:36;100340.28;;;16.07;85.26
74615;BME280;63121;51.458;-0.110;2022-09-09T07:30:02;100356.09;;;16.02;85.32
74615;BME280;63121;51.458;-0.110;2022-09-09T07:32:28;100348.81;;;16.11;84.83
74615;BME280;63121;51.458;-0.110;2022-09-09T07:34:55;100360.69;;;16.18;85.31
74615;BME280;63121;51.458;-0.110;2022-09-09T07:37:23;100363.94;;;16.01;85.47
74615;BME280;63121;51.458;-0.110;2022-09-09T07:39:49;100361.91;;;16.09;84.61
74615;BME280;63121;51.458;-0.110;2022-09-09T07:42:16;100362.44;;;16.17;85.03
74615;BME280;63121;51.458;-0.110;2022-09-09T07:44:41;100366.38;;;16.28;84.51
74615;BME280;63121;51.458;-0.110;2022-09-09T07:47:06;100370.53;;;16.32;83.84
74615;BME280;63121;51.458;-0.110;2022-09-09T07:49:32;100380.63;;;16.39;83.54
74615;BME280;63121;51.458;-0.110;2022-09-09T07:51:57;100375.31;;;16.42;82.57
74615;BME280;63121;51.458;-0.110;2022-09-09T07:54:23;100378.00;;;16.61;82.10
74615;BME280;63121;51.458;-0.110;2022-09-09T07:56:49;100384.34;;;16.76;81.33
74615;BME280;63121;51.458;-0.110;2022-09-09T07:59:15;100379.03;;;17.00;80.67
74615;BME280;63121;51.458;-0.110;2022-09-09T08:01:46;100376.94;;;16.88;80.36
74615;BME280;63121;51.458;-0.110;2022-09-09T08:04:17;100381.66;;;16.78;80.53
74615;BME280;63121;51.458;-0.110;2022-09-09T08:06:46;100385.94;;;16.80;81.09
74615;BME280;63121;51.458;-0.110;2022-09-09T08:09:12;100390.41;;;16.77;80.93
74615;BME280;63121;51.458;-0.110;2022-09-09T08:11:39;100393.22;;;16.93;80.20
74615;BME280;63121;51.458;-0.110;2022-09-09T08:14:07;100392.84;;;17.02;80.35
74615;BME280;63121;51.458;-0.110;2022-09-09T08:16:34;100400.25;;;17.11;79.21
74615;BME280;63121;51.458;-0.110;2022-09-09T08:19:02;100404.56;;;17.12;78.61
74615;BME280;63121;51.458;-0.110;2022-09-09T08:21:29;100406.66;;;17.04;79.58
74615;BME280;63121;51.458;-0.110;2022-09-09T08:23:56;100406.78;;;17.01;79.08
74615;BME280;63121;51.458;-0.110;2022-09-09T08:28:55;100415.84;;;16.92;79.23
74615;BME280;63121;51.458;-0.110;2022-09-09T08:31:39;100421.06;;;16.92;80.43
74615;BME280;63121;51.458;-0.110;2022-09-09T08:34:09;100426.47;;;16.88;79.95
74615;BME280;63121;51.458;-0.110;2022-09-09T08:36:37;100431.97;;;16.80;80.64
74615;BME280;63121;51.458;-0.110;2022-09-09T08:39:05;100432.09;;;16.77;80.58
74615;BME280;63121;51.458;-0.110;2022-09-09T08:44:29;100432.41;;;16.69;81.45
74615;BME280;63121;51.458;-0.110;2022-09-09T08:47:03;100444.00;;;16.62;81.52
74615;BME280;63121;51.458;-0.110;2022-09-09T08:49:59;100447.66;;;16.58;82.02
74615;BME280;63121;51.458;-0.110;2022-09-09T08:55:57;100452.63;;;16.64;82.01
74615;BME280;63121;51.458;-0.110;2022-09-09T08:58:33;100454.69;;;16.56;81.59
74615;BME280;63121;51.458;-0.110;2022-09-09T09:11:38;100479.41;;;16.90;80.37
74615;BME280;63121;51.458;-0.110;2022-09-09T09:14:25;100477.34;;;16.98;80.27
74615;BME280;63121;51.458;-0.110;2022-09-09T09:17:02;100477.34;;;16.98;80.10
74615;BME280;63121;51.458;-0.110;2022-09-09T09:19:29;100490.16;;;17.02;79.97
74615;BME280;63121;51.458;-0.110;2022-09-09T09:27:32;100500.22;;;17.32;78.58
74615;BME280;63121;51.458;-0.110;2022-09-09T09:30:00;100507.06;;;17.35;78.93
74615;BME280;63121;51.458;-0.110;2022-09-09T09:32:30;100509.03;;;17.30;79.05
74615;BME280;63121;51.458;-0.110;2022-09-09T09:34:58;100508.53;;;17.42;78.69
74615;BME280;63121;51.458;-0.110;2022-09-09T09:37:35;100513.31;;;17.51;79.02
74615;BME280;63121;51.458;-0.110;2022-09-09T09:40:15;100511.81;;;17.66;76.88
74615;BME280;63121;51.458;-0.110;2022-09-09T09:42:56;100514.84;;;17.57;78.37
74615;BME280;63121;51.458;-0.110;2022-09-09T09:45:33;100518.13;;;17.41;78.61
74615;BME280;63121;51.458;-0.110;2022-09-09T09:48:02;100516.09;;;17.48;78.37
74615;BME280;63121;51.458;-0.110;2022-09-09T09:50:29;100520.84;;;17.38;77.95
74615;BME280;63121;51.458;-0.110;2022-09-09T09:52:56;100527.56;;;17.44;77.96
74615;BME280;63121;51.458;-0.110;2022-09-09T09:55:22;100523.59;;;17.75;77.35
74615;BME280;63121;51.458;-0.110;2022-09-09T09:57:49;100527.34;;;18.08;76.11
74615;BME280;63121;51.458;-0.110;2022-09-09T10:00:20;100521.72;;;18.18;74.72
74615;BME280;63121;51.458;-0.110;2022-09-09T10:02:46;100523.19;;;18.42;74.73
74615;BME280;63121;51.458;-0.110;2022-09-09T10:05:21;100524.41;;;18.35;74.80
74615;BME280;63121;51.458;-0.110;2022-09-09T10:08:08;100522.97;;;18.66;73.17
74615;BME280;63121;51.458;-0.110;2022-09-09T10:17:27;100526.91;;;18.75;73.53
74615;BME280;63121;51.458;-0.110;2022-09-09T10:19:34;100533.78;;;18.58;73.54
74615;BME280;63121;51.458;-0.110;2022-09-09T10:22:28;100534.50;;;18.43;74.56
74615;BME280;63121;51.458;-0.110;2022-09-09T10:30:21;100540.84;;;18.37;73.19
74615;BME280;63121;51.458;-0.110;2022-09-09T10:40:38;100548.53;;;18.59;72.60
74615;BME280;63121;51.458;-0.110;2022-09-09T10:45:52;100557.09;;;17.85;81.34
74615;BME280;63121;51.458;-0.110;2022-09-09T10:48:28;100565.22;;;17.59;83.24
74615;BME280;63121;51.458;-0.110;2022-09-09T10:51:21;100564.03;;;17.25;85.10
74615;BME280;63121;51.458;-0.110;2022-09-09T10:56:39;100565.25;;;17.37;85.53
74615;BME280;63121;51.458;-0.110;2022-09-09T10:59:12;100560.38;;;17.29;84.81
74615;BME280;63121;51.458;-0.110;2022-09-09T11:01:46;100560.22;;;17.32;84.60
74615;BME280;63121;51.458;-0.110;2022-09-09T11:04:22;100565.91;;;17.21;84.45
74615;BME280;63121;51.458;-0.110;2022-09-09T11:06:53;100563.94;;;17.26;85.57
74615;BME280;63121;51.458;-0.110;2022-09-09T11:09:24;100567.59;;;17.22;83.38
74615;BME280;63121;51.458;-0.110;2022-09-09T11:11:55;100568.34;;;17.46;nan
74615;BME280;63121;51.458;-0.110;2022-09-09T11:17:10;100574.09;;;17.75;80.85
74615;BME280;63121;51.458;-0.110;2022-09-09T11:19:40;100571.66;;;18.12;80.10
74615;BME280;63121;51.458;-0.110;2022-09-09T11:22:22;100567.50;;;18.26;79.69
74615;BME280;63121;51.458;-0.110;2022-09-09T11:42:15;100578.78;;;17.67;78.06
74615;BME280;63121;51.458;-0.110;2022-09-09T11:44:43;100592.00;;;17.84;78.76
74615;BME280;63121;51.458;-0.110;2022-09-09T11:47:29;100584.31;;;17.80;78.32
74615;BME280;63121;51.458;-0.110;2022-09-09T11:52:41;100586.50;;;17.91;78.65
74615;BME280;63121;51.458;-0.110;2022-09-09T11:57:57;100587.91;;;18.37;76.30
74615;BME280;63121;51.458;-0.110;2022-09-09T12:00:36;100584.50;;;18.73;75.21
74615;BME280;63121;51.458;-0.110;2022-09-09T12:03:03;100586.06;;;18.77;75.77
74615;BME280;63121;51.458;-0.110;2022-09-09T12:05:55;100587.06;;;18.56;73.62
74615;BME280;63121;51.458;-0.110;2022-09-09T12:08:27;100581.44;;;19.01;73.86
74615;BME280;63121;51.458;-0.110;2022-09-09T12:10:56;100584.78;;;19.22;72.85
74615;BME280;63121;51.458;-0.110;2022-09-09T12:13:24;100592.03;;;19.35;72.36
74615;BME280;63121;51.458;-0.110;2022-09-09T12:15:55;100585.72;;;19.39;71.23
74615;BME280;63121;51.458;-0.110;2022-09-09T12:18:25;100588.78;;;19.29;68.92
74615;BME280;63121;51.458;-0.110;2022-09-09T12:21:03;100589.47;;;19.16;70.73
74615;BME280;63121;51.458;-0.110;2022-09-09T12:23:47;100580.19;;;19.27;70.09
74615;BME280;63121;51.458;-0.110;2022-09-09T12:26:38;100584.47;;;19.28;69.39
74615;BME280;63121;51.458;-0.110;2022-09-09T12:31:39;100585.94;;;19.86;68.61
74615;BME280;63121;51.458;-0.110;2022-09-09T12:37:02;100579.41;;;19.43;69.03
74615;BME280;63121;51.458;-0.110;2022-09-09T12:39:33;100578.94;;;19.52;68.01
74615;BME280;63121;51.458;-0.110;2022-09-09T12:41:59;100575.34;;;19.72;66.96
74615;BME280;63121;51.458;-0.110;2022-09-09T12:44:26;100579.72;;;19.72;65.38
74615;BME280;63121;51.458;-0.110;2022-09-09T12:46:53;100578.47;;;19.79;66.33
74615;BME280;63121;51.458;-0.110;2022-09-09T12:49:35;100573.66;;;20.04;64.96
74615;BME280;63121;51.458;-0.110;2022-09-09T12:52:28;100580.22;;;20.29;63.97
74615;BME280;63121;51.458;-0.110;2022-09-09T12:54:56;100589.59;;;20.33;64.35
74615;BME280;63121;51.458;-0.110;2022-09-09T12:57:23;100580.47;;;20.40;64.06
74615;BME280;63121;51.458;-0.110;2022-09-09T12:59:51;100577.44;;;20.48;63.69
74615;BME280;63121;51.458;-0.110;2022-09-09T13:02:20;100590.63;;;20.30;62.96
74615;BME280;63121;51.458;-0.110;2022-09-09T13:04:46;100578.16;;;20.34;62.79
74615;BME280;63121;51.458;-0.110;2022-09-09T13:07:12;100583.41;;;20.34;62.52
74615;BME280;63121;51.458;-0.110;2022-09-09T13:09:38;100578.34;;;20.31;63.12
74615;BME280;63121;51.458;-0.110;2022-09-09T13:12:05;100583.66;;;20.14;64.35
74615;BME280;63121;51.458;-0.110;2022-09-09T13:14:36;100578.63;;;20.09;63.25
74615;BME280;63121;51.458;-0.110;2022-09-09T13:17:06;100578.75;;;20.07;62.47
74615;BME280;63121;51.458;-0.110;2022-09-09T13:19:35;100570.91;;;19.90;63.40
74615;BME280;63121;51.458;-0.110;2022-09-09T13:22:27;100576.06;;;20.25;62.39
74615;BME280;63121;51.458;-0.110;2022-09-09T13:25:21;100576.56;;;20.16;61.80
74615;BME280;63121;51.458;-0.110;2022-09-09T13:27:58;100580.66;;;20.37;61.17
74615;BME280;63121;51.458;-0.110;2022-09-09T13:35:49;100587.66;;;20.37;60.97
74615;BME280;63121;51.458;-0.110;2022-09-09T13:38:16;100589.03;;;20.44;61.77
74615;BME280;63121;51.458;-0.110;2022-09-09T13:40:53;100596.41;;;20.69;60.96
74615;BME280;63121;51.458;-0.110;2022-09-09T13:43:22;100597.72;;;21.54;58.29
74615;BME280;63121;51.458;-0.110;2022-09-09T13:46:00;100584.72;;;21.81;57.17
74615;BME280;63121;51.458;-0.110;2022-09-09T13:48:26;100589.06;;;21.82;57.49
74615;BME280;63121;51.458;-0.110;2022-09-09T13:51:01;100589.63;;;21.43;58.40
74615;BME280;63121;51.458;-0.110;2022-09-09T13:53:27;100585.34;;;21.56;57.29
74615;BME280;63121;51.458;-0.110;2022-09-09T13:55:53;100594.19;;;21.39;58.71
74615;BME280;63121;51.458;-0.110;2022-09-09T13:58:18;100588.50;;;22.35;55.61
74615;BME280;63121;51.458;-0.110;2022-09-09T14:00:45;100587.03;;;22.30;55.90
74615;BME280;63121;51.458;-0.110;2022-09-09T14:03:11;100593.84;;;22.19;56.06
74615;BME280;63121;51.458;-0.110;2022-09-09T14:05:37;100588.13;;;22.12;55.64
74615;BME280;63121;51.458;-0.110;2022-09-09T14:08:07;100594.31;;;21.97;55.14
74615;BME280;63121;51.458;-0.110;2022-09-09T14:10:33;100586.66;;;22.64;54.18
74615;BME280;63121;51.458;-0.110;2022-09-09T14:13:02;100589.53;;;23.55;51.06
74615;BME280;63121;51.458;-0.110;2022-09-09T14:15:27;100592.97;;;23.30;50.04
74615;BME280;63121;51.458;-0.110;2022-09-09T14:17:54;100605.28;;;22.61;52.44
74615;BME280;63121;51.458;-0.110;2022-09-09T14:20:20;100599.69;;;24.00;48.91
74615;BME280;63121;51.458;-0.110;2022-09-09T14:22:45;100605.81;;;23.34;50.76
74615;BME280;63121;51.458;-0.110;2022-09-09T14:25:11;100601.81;;;22.60;52.96
74615;BME280;63121;51.458;-0.110;2022-09-09T14:27:39;100597.44;;;22.03;54.65
74615;BME280;63121;51.458;-0.110;2022-09-09T14:30:05;100601.50;;;21.64;56.50
74615;BME280;63121;51.458;-0.110;2022-09-09T14:32:31;100590.25;;;21.62;56.88
74615;BME280;63121;51.458;-0.110;2022-09-09T14:34:58;100600.75;;;21.62;56.45
74615;BME280;63121;51.458;-0.110;2022-09-09T14:37:24;100589.97;;;21.67;56.80
74615;BME280;63121;51.458;-0.110;2022-09-09T14:39:49;100599.31;;;22.01;56.43
74615;BME280;63121;51.458;-0.110;2022-09-09T14:42:16;100593.09;;;22.02;56.26
74615;BME280;63121;51.458;-0.110;2022-09-09T14:44:41;100605.25;;;22.33;56.14
74615;BME280;63121;51.458;-0.110;2022-09-09T14:47:07;100604.66;;;22.14;55.43
74615;BME280;63121;51.458;-0.110;2022-09-09T14:49:34;100595.53;;;21.77;56.47
74615;BME280;63121;51.458;-0.110;2022-09-09T14:51:59;100605.41;;;21.43;57.39
74615;BME280;63121;51.458;-0.110;2022-09-09T14:54:25;100599.63;;;21.36;57.71
74615;BME280;63121;51.458;-0.110;2022-09-09T14:56:50;100592.34;;;22.00;56.10
74615;BME280;63121;51.458;-0.110;2022-09-09T14:59:16;100600.47;;;21.52;56.50
74615;BME280;63121;51.458;-0.110;2022-09-09T15:01:41;100596.28;;;21.18;57.91
74615;BME280;63121;51.458;-0.110;2022-09-09T15:04:07;100588.09;;;20.92;59.08
74615;BME280;63121;51.458;-0.110;2022-09-09T15:06:34;100598.63;;;20.77;59.12
74615;BME280;63121;51.458;-0.110;2022-09-09T15:09:01;100599.47;;;20.61;59.56
74615;BME280;63121;51.458;-0.110;2022-09-09T15:11:29;100603.06;;;20.43;60.24
74615;BME280;63121;51.458;-0.110;2022-09-09T15:13:55;100602.72;;;20.33;60.18